CheckWX is a tool to help pilots better visualize weather data.  It is not intended as a substitute for an official pre-flight weather briefing.

00:19:42 UTC

KDDC METAR
Dodge City Regional Airport
Dodge City, Kansas, USA
Current

1 hour ago

KDDC 272252Z AUTO 02012KT 10SM CLR 24/08 A2994 RMK AO2 SLP117 T02390078
Observed
May-27 @ 22:52 UTC
Wind
  • 020° at 12 KTS
Visibility
Flight Rules
VFR
Cloud Levels
  • Clear skies
Temperature
24°C / 75°F
Dewpoint
C / 46°F
Humidity
36%
Altimeter
29.94" Hg
Pressure
1013.92 hPa
Previous

2 hours ago

KDDC 272152Z AUTO 03014KT 10SM CLR 24/07 A2994 RMK AO2 SLP117 T02440072
Observed
May-27 @ 21:52 UTC
Wind
  • 030° at 14 KTS
Visibility
Flight Rules
VFR
Cloud Levels
  • Clear skies
Temperature
24°C / 75°F
Dewpoint
C / 45°F
Humidity
34%
Altimeter
29.94" Hg
Pressure
1013.92 hPa
Previous

3 hours ago

KDDC 272052Z AUTO 36010G22KT 10SM CLR 26/08 A2994 RMK AO2 SLP116 T02610078 56009
Observed
May-27 @ 20:52 UTC
Wind
  • 360° at 10 KTS
  • Gusting to 22 KTS
Visibility
Flight Rules
VFR
Cloud Levels
  • Clear skies
Temperature
26°C / 79°F
Dewpoint
C / 46°F
Humidity
32%
Altimeter
29.94" Hg
Pressure
1013.92 hPa